This is the latest recevied weather packets stored in our database for station/object KJ6BBX. If no packets are shown the sender has not sent any weather packets the latest 10 day(s).
| Time | Temp. | Humidity | Pressure | Rain* | Wind** | Luminosity | Snow |
|---|---|---|---|---|---|---|---|
| 1777747814 | 22.78° C | 66% | 1006.2 hPa | 0 mm | - | 583 W/m² | - |
| 1777746915 | 21.67° C | 69% | 1006.1 hPa | 0 mm | - | 530 W/m² | - |
| 1777746013 | 21.11° C | 72% | 1006.4 hPa | 0 mm | - | 566 W/m² | - |
| 1777745114 | 20.56° C | 74% | 1006.4 hPa | 0 mm | - | 480 W/m² | - |
| 1777744214 | 19.44° C | 76% | 1006.7 hPa | 0 mm | - | 532 W/m² | - |
| 1777743314 | 18.89° C | 77% | 1006.6 hPa | 0 mm | - | 583 W/m² | - |
| 1777742414 | 17.78° C | 82% | 1007.3 hPa | 0 mm | - | 488 W/m² | - |
| 1777741515 | 16.67° C | 87% | 1007.2 hPa | 0 mm | - | 197 W/m² | - |
| 1777740614 | 15.56° C | 90% | 1007.2 hPa | 0 mm | - | 179 W/m² | - |
| 1777739714 | 15° C | 91% | 1007.1 hPa | 0 mm | - | 128 W/m² | - |
| 1777738814 | 15° C | 93% | 1007.2 hPa | 0 mm | - | 77 W/m² | - |
| 1777737914 | 15° C | 95% | 1007 hPa | 0 mm | - | 92 W/m² | - |
| 1777737014 | 14.44° C | 96% | 1007 hPa | 0 mm | - | 63 W/m² | - |
| 1777736115 | 14.44° C | 97% | 1006.9 hPa | 0 mm | - | 69 W/m² | - |
| 1777735214 | 13.89° C | 98% | 1006.8 hPa | 0 mm | - | 58 W/m² | - |
| 1777734314 | 13.89° C | 99% | 1006.9 hPa | 0 mm | - | 43 W/m² | - |
| 1777733415 | 13.89° C | 99% | 1007 hPa | 0 mm | - | 33 W/m² | - |
| 1777732514 | 13.89° C | 99% | 1006.7 hPa | 0 mm | - | 36 W/m² | - |
| 1777731614 | 13.89° C | 99% | 1006.7 hPa | 0 mm | - | 29 W/m² | - |
| 1777730714 | 13.33° C | 99% | 1006.6 hPa | 0 mm | - | 18 W/m² | - |
| 1777729814 | 13.33° C | 99% | 1006.4 hPa | 0 mm | - | 11 W/m² | - |
| 1777728914 | 13.33° C | 99% | 1006.2 hPa | 0 mm | - | 6 W/m² | - |
| 1777728014 | 13.33° C | 99% | 1006.1 hPa | 0 mm | - | 1 W/m² | - |
| 1777727115 | 13.33° C | 99% | 1006.3 hPa | 0 mm | - | 0 W/m² | - |
| 1777726214 | 12.78° C | 98% | 1006.3 hPa | 0 mm | - | 0 W/m² | - |
* Rain since midnight (hover to see other rain measurements)
** Current wind speed in m/s (hover to see current wind gust speed)